sensor_id;sensor_type;location;lat;lon;timestamp;P1;durP1;ratioP1;P2;durP2;ratioP2
49396;SDS011;35615;41.410;2.194;2022-07-12T00:02:21;9.27;;;5.82;;
49396;SDS011;35615;41.410;2.194;2022-07-12T00:04:48;7.78;;;5.38;;
49396;SDS011;35615;41.410;2.194;2022-07-12T00:07:19;12.93;;;6.38;;
49396;SDS011;35615;41.410;2.194;2022-07-12T00:09:47;12.70;;;6.70;;
49396;SDS011;35615;41.410;2.194;2022-07-12T00:12:19;9.35;;;5.75;;
49396;SDS011;35615;41.410;2.194;2022-07-12T00:14:49;14.27;;;6.60;;
49396;SDS011;35615;41.410;2.194;2022-07-12T00:17:18;15.90;;;6.47;;
49396;SDS011;35615;41.410;2.194;2022-07-12T00:19:49;13.27;;;6.93;;
49396;SDS011;35615;41.410;2.194;2022-07-12T00:22:19;13.13;;;6.05;;
49396;SDS011;35615;41.410;2.194;2022-07-12T00:24:46;12.95;;;5.90;;
49396;SDS011;35615;41.410;2.194;2022-07-12T00:27:16;11.80;;;6.47;;
49396;SDS011;35615;41.410;2.194;2022-07-12T00:29:47;13.27;;;5.88;;
49396;SDS011;35615;41.410;2.194;2022-07-12T00:32:15;11.63;;;5.85;;
49396;SDS011;35615;41.410;2.194;2022-07-12T00:34:42;8.55;;;5.45;;
49396;SDS011;35615;41.410;2.194;2022-07-12T00:37:10;11.55;;;5.68;;
49396;SDS011;35615;41.410;2.194;2022-07-12T00:39:37;12.00;;;5.65;;
49396;SDS011;35615;41.410;2.194;2022-07-12T00:42:05;11.77;;;6.13;;
49396;SDS011;35615;41.410;2.194;2022-07-12T00:44:32;19.75;;;5.70;;
49396;SDS011;35615;41.410;2.194;2022-07-12T00:47:01;13.63;;;5.93;;
49396;SDS011;35615;41.410;2.194;2022-07-12T00:49:29;11.40;;;6.70;;
49396;SDS011;35615;41.410;2.194;2022-07-12T00:51:57;12.43;;;5.97;;
49396;SDS011;35615;41.410;2.194;2022-07-12T00:54:24;11.20;;;5.40;;
49396;SDS011;35615;41.410;2.194;2022-07-12T00:56:58;8.20;;;4.75;;
49396;SDS011;35615;41.410;2.194;2022-07-12T00:59:26;8.68;;;4.28;;
49396;SDS011;35615;41.410;2.194;2022-07-12T01:01:59;12.63;;;4.72;;
49396;SDS011;35615;41.410;2.194;2022-07-12T01:04:27;5.55;;;4.68;;
49396;SDS011;35615;41.410;2.194;2022-07-12T01:06:55;9.63;;;5.47;;
49396;SDS011;35615;41.410;2.194;2022-07-12T01:09:22;11.32;;;5.32;;
49396;SDS011;35615;41.410;2.194;2022-07-12T01:11:49;13.43;;;6.00;;
49396;SDS011;35615;41.410;2.194;2022-07-12T01:14:16;10.20;;;5.38;;
49396;SDS011;35615;41.410;2.194;2022-07-12T01:16:44;10.07;;;4.95;;
49396;SDS011;35615;41.410;2.194;2022-07-12T01:19:11;8.18;;;5.15;;
49396;SDS011;35615;41.410;2.194;2022-07-12T01:21:47;9.43;;;5.00;;
49396;SDS011;35615;41.410;2.194;2022-07-12T01:24:20;10.00;;;4.95;;
49396;SDS011;35615;41.410;2.194;2022-07-12T01:26:49;10.73;;;5.38;;
49396;SDS011;35615;41.410;2.194;2022-07-12T01:29:17;10.68;;;5.20;;
49396;SDS011;35615;41.410;2.194;2022-07-12T01:31:45;11.20;;;5.22;;
49396;SDS011;35615;41.410;2.194;2022-07-12T01:34:13;11.25;;;4.72;;
49396;SDS011;35615;41.410;2.194;2022-07-12T01:36:41;7.07;;;4.78;;
49396;SDS011;35615;41.410;2.194;2022-07-12T01:39:08;9.57;;;5.00;;
49396;SDS011;35615;41.410;2.194;2022-07-12T01:41:36;7.78;;;5.00;;
49396;SDS011;35615;41.410;2.194;2022-07-12T01:44:05;10.80;;;5.05;;
49396;SDS011;35615;41.410;2.194;2022-07-12T01:46:33;10.45;;;4.93;;
49396;SDS011;35615;41.410;2.194;2022-07-12T01:49:00;8.25;;;5.20;;
49396;SDS011;35615;41.410;2.194;2022-07-12T01:51:33;12.50;;;5.43;;
49396;SDS011;35615;41.410;2.194;2022-07-12T01:54:00;9.60;;;4.30;;
49396;SDS011;35615;41.410;2.194;2022-07-12T01:56:28;11.10;;;4.95;;
49396;SDS011;35615;41.410;2.194;2022-07-12T01:58:55;7.15;;;5.00;;
49396;SDS011;35615;41.410;2.194;2022-07-12T02:01:22;9.32;;;5.18;;
49396;SDS011;35615;41.410;2.194;2022-07-12T02:03:50;12.23;;;5.45;;
49396;SDS011;35615;41.410;2.194;2022-07-12T02:06:18;9.48;;;4.80;;
49396;SDS011;35615;41.410;2.194;2022-07-12T02:08:49;8.70;;;4.10;;
49396;SDS011;35615;41.410;2.194;2022-07-12T02:11:16;8.57;;;4.57;;
49396;SDS011;35615;41.410;2.194;2022-07-12T02:13:44;10.52;;;4.13;;
49396;SDS011;35615;41.410;2.194;2022-07-12T02:16:11;9.25;;;4.70;;
49396;SDS011;35615;41.410;2.194;2022-07-12T02:18:39;10.70;;;4.15;;
49396;SDS011;35615;41.410;2.194;2022-07-12T02:21:06;11.50;;;5.10;;
49396;SDS011;35615;41.410;2.194;2022-07-12T02:23:33;10.27;;;4.63;;
49396;SDS011;35615;41.410;2.194;2022-07-12T02:26:06;14.07;;;5.63;;
49396;SDS011;35615;41.410;2.194;2022-07-12T02:28:33;7.88;;;4.93;;
49396;SDS011;35615;41.410;2.194;2022-07-12T02:31:01;10.07;;;5.00;;
49396;SDS011;35615;41.410;2.194;2022-07-12T02:33:28;7.60;;;4.75;;
49396;SDS011;35615;41.410;2.194;2022-07-12T02:35:55;5.95;;;4.13;;
49396;SDS011;35615;41.410;2.194;2022-07-12T02:38:22;8.40;;;4.50;;
49396;SDS011;35615;41.410;2.194;2022-07-12T02:40:50;8.10;;;4.50;;
49396;SDS011;35615;41.410;2.194;2022-07-12T02:43:20;8.68;;;4.28;;
49396;SDS011;35615;41.410;2.194;2022-07-12T02:45:48;9.57;;;4.10;;
49396;SDS011;35615;41.410;2.194;2022-07-12T02:48:15;7.72;;;4.68;;
49396;SDS011;35615;41.410;2.194;2022-07-12T02:50:43;8.10;;;4.45;;
49396;SDS011;35615;41.410;2.194;2022-07-12T02:53:11;9.70;;;4.57;;
49396;SDS011;35615;41.410;2.194;2022-07-12T02:55:38;5.53;;;4.35;;
49396;SDS011;35615;41.410;2.194;2022-07-12T02:58:06;13.38;;;4.90;;
49396;SDS011;35615;41.410;2.194;2022-07-12T03:00:34;12.73;;;4.82;;
49396;SDS011;35615;41.410;2.194;2022-07-12T03:03:02;7.85;;;4.57;;
49396;SDS011;35615;41.410;2.194;2022-07-12T03:05:29;9.05;;;4.57;;
49396;SDS011;35615;41.410;2.194;2022-07-12T03:07:56;9.93;;;5.03;;
49396;SDS011;35615;41.410;2.194;2022-07-12T03:10:24;9.93;;;4.15;;
49396;SDS011;35615;41.410;2.194;2022-07-12T03:12:51;9.50;;;5.50;;
49396;SDS011;35615;41.410;2.194;2022-07-12T03:15:19;8.38;;;4.43;;
49396;SDS011;35615;41.410;2.194;2022-07-12T03:17:46;5.82;;;3.70;;
49396;SDS011;35615;41.410;2.194;2022-07-12T03:20:13;10.60;;;4.38;;
49396;SDS011;35615;41.410;2.194;2022-07-12T03:22:41;11.63;;;4.20;;
49396;SDS011;35615;41.410;2.194;2022-07-12T03:25:21;10.43;;;4.03;;
49396;SDS011;35615;41.410;2.194;2022-07-12T03:27:51;10.93;;;4.68;;
49396;SDS011;35615;41.410;2.194;2022-07-12T03:30:18;5.05;;;3.90;;
49396;SDS011;35615;41.410;2.194;2022-07-12T03:32:46;7.93;;;4.25;;
49396;SDS011;35615;41.410;2.194;2022-07-12T03:35:15;7.85;;;4.22;;
49396;SDS011;35615;41.410;2.194;2022-07-12T03:37:45;9.10;;;4.88;;
49396;SDS011;35615;41.410;2.194;2022-07-12T03:40:15;6.10;;;3.78;;
49396;SDS011;35615;41.410;2.194;2022-07-12T03:42:46;11.38;;;3.50;;
49396;SDS011;35615;41.410;2.194;2022-07-12T03:45:18;5.53;;;3.58;;
49396;SDS011;35615;41.410;2.194;2022-07-12T03:47:48;8.90;;;3.90;;
49396;SDS011;35615;41.410;2.194;2022-07-12T03:50:17;8.20;;;3.40;;
49396;SDS011;35615;41.410;2.194;2022-07-12T03:52:47;10.35;;;3.55;;
49396;SDS011;35615;41.410;2.194;2022-07-12T03:55:15;10.77;;;3.78;;
49396;SDS011;35615;41.410;2.194;2022-07-12T03:57:45;6.47;;;3.70;;
49396;SDS011;35615;41.410;2.194;2022-07-12T04:00:14;12.43;;;3.42;;
49396;SDS011;35615;41.410;2.194;2022-07-12T04:02:42;12.55;;;3.47;;
49396;SDS011;35615;41.410;2.194;2022-07-12T04:05:09;9.40;;;4.35;;
49396;SDS011;35615;41.410;2.194;2022-07-12T04:07:38;13.32;;;4.15;;
49396;SDS011;35615;41.410;2.194;2022-07-12T04:10:06;7.22;;;3.38;;
49396;SDS011;35615;41.410;2.194;2022-07-12T04:12:36;5.60;;;3.22;;
49396;SDS011;35615;41.410;2.194;2022-07-12T04:15:04;7.30;;;4.28;;
49396;SDS011;35615;41.410;2.194;2022-07-12T04:17:33;11.13;;;3.97;;
49396;SDS011;35615;41.410;2.194;2022-07-12T04:20:00;10.55;;;4.28;;
49396;SDS011;35615;41.410;2.194;2022-07-12T04:22:27;9.80;;;3.70;;
49396;SDS011;35615;41.410;2.194;2022-07-12T04:24:55;11.77;;;3.75;;
49396;SDS011;35615;41.410;2.194;2022-07-12T04:27:28;6.10;;;3.45;;
49396;SDS011;35615;41.410;2.194;2022-07-12T04:30:21;18.17;;;4.63;;
49396;SDS011;35615;41.410;2.194;2022-07-12T04:33:11;16.60;;;3.60;;
49396;SDS011;35615;41.410;2.194;2022-07-12T04:36:19;10.68;;;4.05;;
49396;SDS011;35615;41.410;2.194;2022-07-12T04:39:05;10.38;;;4.25;;
49396;SDS011;35615;41.410;2.194;2022-07-12T04:42:09;12.77;;;4.60;;
49396;SDS011;35615;41.410;2.194;2022-07-12T04:45:26;8.52;;;3.97;;
49396;SDS011;35615;41.410;2.194;2022-07-12T04:48:18;9.57;;;4.22;;
49396;SDS011;35615;41.410;2.194;2022-07-12T04:51:03;8.77;;;4.10;;
49396;SDS011;35615;41.410;2.194;2022-07-12T04:57:38;6.60;;;3.60;;
49396;SDS011;35615;41.410;2.194;2022-07-12T05:00:57;10.60;;;4.55;;
49396;SDS011;35615;41.410;2.194;2022-07-12T05:03:46;10.40;;;3.88;;
49396;SDS011;35615;41.410;2.194;2022-07-12T05:07:18;14.80;;;4.43;;
49396;SDS011;35615;41.410;2.194;2022-07-12T05:13:34;9.55;;;4.43;;
49396;SDS011;35615;41.410;2.194;2022-07-12T05:19:04;7.82;;;4.25;;
49396;SDS011;35615;41.410;2.194;2022-07-12T05:21:51;12.40;;;5.05;;
49396;SDS011;35615;41.410;2.194;2022-07-12T05:25:02;13.35;;;4.07;;
49396;SDS011;35615;41.410;2.194;2022-07-12T05:28:17;17.60;;;4.38;;
49396;SDS011;35615;41.410;2.194;2022-07-12T05:31:03;14.25;;;4.75;;
49396;SDS011;35615;41.410;2.194;2022-07-12T05:34:22;12.60;;;4.33;;
49396;SDS011;35615;41.410;2.194;2022-07-12T05:37:02;13.73;;;4.70;;
49396;SDS011;35615;41.410;2.194;2022-07-12T05:40:02;12.05;;;4.63;;
49396;SDS011;35615;41.410;2.194;2022-07-12T05:42:49;8.50;;;4.40;;
49396;SDS011;35615;41.410;2.194;2022-07-12T05:45:45;10.13;;;5.15;;
49396;SDS011;35615;41.410;2.194;2022-07-12T05:48:48;13.05;;;4.40;;
49396;SDS011;35615;41.410;2.194;2022-07-12T05:51:42;15.45;;;5.00;;
49396;SDS011;35615;41.410;2.194;2022-07-12T05:54:33;12.73;;;4.20;;
49396;SDS011;35615;41.410;2.194;2022-07-12T05:57:15;14.27;;;4.78;;
49396;SDS011;35615;41.410;2.194;2022-07-12T05:59:50;18.15;;;5.28;;
49396;SDS011;35615;41.410;2.194;2022-07-12T06:02:20;12.15;;;5.03;;
49396;SDS011;35615;41.410;2.194;2022-07-12T06:05:04;11.88;;;5.10;;
49396;SDS011;35615;41.410;2.194;2022-07-12T06:07:33;14.13;;;4.85;;
49396;SDS011;35615;41.410;2.194;2022-07-12T06:10:03;21.30;;;5.25;;
49396;SDS011;35615;41.410;2.194;2022-07-12T06:12:31;17.15;;;5.90;;
49396;SDS011;35615;41.410;2.194;2022-07-12T06:14:59;17.90;;;5.90;;
49396;SDS011;35615;41.410;2.194;2022-07-12T06:17:28;14.27;;;5.78;;
49396;SDS011;35615;41.410;2.194;2022-07-12T06:20:01;23.30;;;5.72;;
49396;SDS011;35615;41.410;2.194;2022-07-12T06:22:38;12.43;;;5.55;;
49396;SDS011;35615;41.410;2.194;2022-07-12T06:25:08;22.50;;;5.38;;
49396;SDS011;35615;41.410;2.194;2022-07-12T06:28:01;13.53;;;5.30;;
49396;SDS011;35615;41.410;2.194;2022-07-12T06:30:30;17.77;;;5.32;;
49396;SDS011;35615;41.410;2.194;2022-07-12T06:33:03;15.15;;;6.13;;
49396;SDS011;35615;41.410;2.194;2022-07-12T06:35:58;12.98;;;5.35;;
49396;SDS011;35615;41.410;2.194;2022-07-12T06:38:58;12.93;;;5.30;;
49396;SDS011;35615;41.410;2.194;2022-07-12T06:42:06;14.77;;;5.10;;
49396;SDS011;35615;41.410;2.194;2022-07-12T06:44:58;20.88;;;5.30;;
49396;SDS011;35615;41.410;2.194;2022-07-12T06:48:22;14.02;;;6.03;;
49396;SDS011;35615;41.410;2.194;2022-07-12T06:51:10;16.90;;;5.70;;
49396;SDS011;35615;41.410;2.194;2022-07-12T06:54:09;24.35;;;5.80;;
49396;SDS011;35615;41.410;2.194;2022-07-12T06:56:41;21.17;;;5.90;;
49396;SDS011;35615;41.410;2.194;2022-07-12T06:59:51;20.15;;;7.68;;
49396;SDS011;35615;41.410;2.194;2022-07-12T07:03:05;20.90;;;6.40;;
49396;SDS011;35615;41.410;2.194;2022-07-12T07:06:01;18.90;;;6.43;;
49396;SDS011;35615;41.410;2.194;2022-07-12T07:12:29;17.77;;;6.57;;
49396;SDS011;35615;41.410;2.194;2022-07-12T07:15:35;13.65;;;6.93;;
49396;SDS011;35615;41.410;2.194;2022-07-12T07:18:23;16.48;;;7.15;;
49396;SDS011;35615;41.410;2.194;2022-07-12T07:21:29;10.15;;;7.20;;
49396;SDS011;35615;41.410;2.194;2022-07-12T07:24:23;16.00;;;6.78;;
49396;SDS011;35615;41.410;2.194;2022-07-12T07:28:01;15.15;;;8.75;;
49396;SDS011;35615;41.410;2.194;2022-07-12T07:31:18;16.13;;;7.82;;
49396;SDS011;35615;41.410;2.194;2022-07-12T07:34:31;9.13;;;7.53;;
49396;SDS011;35615;41.410;2.194;2022-07-12T07:40:59;15.52;;;6.82;;
49396;SDS011;35615;41.410;2.194;2022-07-12T07:43:45;21.30;;;6.18;;
49396;SDS011;35615;41.410;2.194;2022-07-12T07:46:49;14.98;;;6.03;;
49396;SDS011;35615;41.410;2.194;2022-07-12T07:50:05;12.10;;;5.97;;
49396;SDS011;35615;41.410;2.194;2022-07-12T07:52:50;13.25;;;5.57;;
49396;SDS011;35615;41.410;2.194;2022-07-12T07:56:26;11.05;;;5.97;;
49396;SDS011;35615;41.410;2.194;2022-07-12T07:59:54;11.13;;;5.82;;
49396;SDS011;35615;41.410;2.194;2022-07-12T08:02:42;11.82;;;5.47;;
49396;SDS011;35615;41.410;2.194;2022-07-12T08:05:11;17.85;;;6.00;;
49396;SDS011;35615;41.410;2.194;2022-07-12T08:07:42;9.35;;;6.00;;
49396;SDS011;35615;41.410;2.194;2022-07-12T08:10:21;14.82;;;6.03;;
49396;SDS011;35615;41.410;2.194;2022-07-12T08:12:54;13.97;;;6.83;;
49396;SDS011;35615;41.410;2.194;2022-07-12T08:15:21;12.30;;;7.53;;
49396;SDS011;35615;41.410;2.194;2022-07-12T08:17:54;9.05;;;7.15;;
49396;SDS011;35615;41.410;2.194;2022-07-12T08:20:43;12.50;;;6.82;;
49396;SDS011;35615;41.410;2.194;2022-07-12T08:23:17;7.35;;;6.65;;
49396;SDS011;35615;41.410;2.194;2022-07-12T08:25:47;9.05;;;6.68;;
49396;SDS011;35615;41.410;2.194;2022-07-12T08:28:17;12.05;;;7.00;;
49396;SDS011;35615;41.410;2.194;2022-07-12T08:30:54;8.85;;;6.82;;
49396;SDS011;35615;41.410;2.194;2022-07-12T08:33:31;17.02;;;7.70;;
49396;SDS011;35615;41.410;2.194;2022-07-12T08:35:58;9.13;;;7.50;;
49396;SDS011;35615;41.410;2.194;2022-07-12T08:38:26;9.90;;;7.10;;
49396;SDS011;35615;41.410;2.194;2022-07-12T08:41:02;13.07;;;6.78;;
49396;SDS011;35615;41.410;2.194;2022-07-12T08:43:34;12.70;;;6.13;;
49396;SDS011;35615;41.410;2.194;2022-07-12T08:46:05;12.35;;;7.28;;
49396;SDS011;35615;41.410;2.194;2022-07-12T08:48:41;11.40;;;6.32;;
49396;SDS011;35615;41.410;2.194;2022-07-12T08:51:23;7.53;;;6.13;;
49396;SDS011;35615;41.410;2.194;2022-07-12T08:54:04;12.20;;;5.65;;
49396;SDS011;35615;41.410;2.194;2022-07-12T08:56:42;8.68;;;5.93;;
49396;SDS011;35615;41.410;2.194;2022-07-12T08:59:20;7.22;;;5.53;;
49396;SDS011;35615;41.410;2.194;2022-07-12T09:01:51;6.50;;;5.88;;
49396;SDS011;35615;41.410;2.194;2022-07-12T09:04:23;13.40;;;5.57;;
49396;SDS011;35615;41.410;2.194;2022-07-12T09:06:51;13.70;;;6.20;;
49396;SDS011;35615;41.410;2.194;2022-07-12T09:09:27;6.55;;;5.10;;
49396;SDS011;35615;41.410;2.194;2022-07-12T09:11:59;11.90;;;6.05;;
49396;SDS011;35615;41.410;2.194;2022-07-12T09:14:31;9.45;;;5.82;;
49396;SDS011;35615;41.410;2.194;2022-07-12T09:17:04;11.48;;;5.68;;
49396;SDS011;35615;41.410;2.194;2022-07-12T09:19:36;11.82;;;5.45;;
49396;SDS011;35615;41.410;2.194;2022-07-12T09:22:13;6.72;;;5.35;;
49396;SDS011;35615;41.410;2.194;2022-07-12T09:24:49;10.98;;;5.68;;
49396;SDS011;35615;41.410;2.194;2022-07-12T09:27:16;11.00;;;5.30;;
49396;SDS011;35615;41.410;2.194;2022-07-12T09:29:52;6.78;;;4.82;;
49396;SDS011;35615;41.410;2.194;2022-07-12T09:32:25;10.77;;;4.55;;
49396;SDS011;35615;41.410;2.194;2022-07-12T09:35:11;7.90;;;5.13;;
49396;SDS011;35615;41.410;2.194;2022-07-12T09:38:07;9.85;;;5.63;;
49396;SDS011;35615;41.410;2.194;2022-07-12T09:40:36;8.88;;;5.60;;
49396;SDS011;35615;41.410;2.194;2022-07-12T09:43:03;8.82;;;5.13;;
49396;SDS011;35615;41.410;2.194;2022-07-12T09:45:32;10.95;;;5.50;;
49396;SDS011;35615;41.410;2.194;2022-07-12T09:47:59;13.90;;;5.57;;
49396;SDS011;35615;41.410;2.194;2022-07-12T09:50:29;10.57;;;5.32;;
49396;SDS011;35615;41.410;2.194;2022-07-12T09:52:57;17.58;;;5.55;;
49396;SDS011;35615;41.410;2.194;2022-07-12T09:55:26;9.07;;;6.10;;
49396;SDS011;35615;41.410;2.194;2022-07-12T09:58:02;14.70;;;8.40;;
49396;SDS011;35615;41.410;2.194;2022-07-12T10:00:29;10.25;;;5.22;;
49396;SDS011;35615;41.410;2.194;2022-07-12T10:02:58;7.22;;;5.30;;
49396;SDS011;35615;41.410;2.194;2022-07-12T10:05:28;9.13;;;5.10;;
49396;SDS011;35615;41.410;2.194;2022-07-12T10:08:01;9.57;;;4.80;;
49396;SDS011;35615;41.410;2.194;2022-07-12T10:10:31;10.63;;;5.30;;
49396;SDS011;35615;41.410;2.194;2022-07-12T10:12:59;8.35;;;5.22;;
49396;SDS011;35615;41.410;2.194;2022-07-12T10:15:28;23.58;;;6.80;;
49396;SDS011;35615;41.410;2.194;2022-07-12T10:17:59;12.88;;;5.18;;
49396;SDS011;35615;41.410;2.194;2022-07-12T10:20:32;8.13;;;5.00;;
49396;SDS011;35615;41.410;2.194;2022-07-12T10:25:51;7.90;;;4.45;;
49396;SDS011;35615;41.410;2.194;2022-07-12T10:31:33;9.93;;;4.55;;
49396;SDS011;35615;41.410;2.194;2022-07-12T10:34:13;8.27;;;4.55;;
49396;SDS011;35615;41.410;2.194;2022-07-12T10:40:30;9.20;;;4.85;;
49396;SDS011;35615;41.410;2.194;2022-07-12T10:45:42;12.15;;;4.68;;
49396;SDS011;35615;41.410;2.194;2022-07-12T10:48:23;8.82;;;5.55;;
49396;SDS011;35615;41.410;2.194;2022-07-12T10:51:11;9.30;;;4.88;;
49396;SDS011;35615;41.410;2.194;2022-07-12T10:53:41;13.88;;;5.10;;
49396;SDS011;35615;41.410;2.194;2022-07-12T10:56:16;16.25;;;4.53;;
49396;SDS011;35615;41.410;2.194;2022-07-12T10:58:58;10.35;;;4.40;;
49396;SDS011;35615;41.410;2.194;2022-07-12T11:01:40;10.18;;;4.38;;
49396;SDS011;35615;41.410;2.194;2022-07-12T11:04:21;9.02;;;4.32;;
49396;SDS011;35615;41.410;2.194;2022-07-12T11:06:54;14.85;;;5.00;;
49396;SDS011;35615;41.410;2.194;2022-07-12T11:09:31;5.88;;;4.10;;
49396;SDS011;35615;41.410;2.194;2022-07-12T11:12:01;4.82;;;4.28;;
49396;SDS011;35615;41.410;2.194;2022-07-12T11:14:32;9.05;;;4.53;;
49396;SDS011;35615;41.410;2.194;2022-07-12T11:17:02;8.18;;;4.65;;
49396;SDS011;35615;41.410;2.194;2022-07-12T11:19:31;12.63;;;4.38;;
49396;SDS011;35615;41.410;2.194;2022-07-12T11:22:05;15.07;;;4.65;;
49396;SDS011;35615;41.410;2.194;2022-07-12T11:24:38;4.95;;;4.30;;
49396;SDS011;35615;41.410;2.194;2022-07-12T11:27:08;7.15;;;4.13;;
49396;SDS011;35615;41.410;2.194;2022-07-12T11:29:52;14.20;;;4.63;;
49396;SDS011;35615;41.410;2.194;2022-07-12T11:32:48;7.13;;;4.40;;
49396;SDS011;35615;41.410;2.194;2022-07-12T11:35:27;7.68;;;4.38;;
49396;SDS011;35615;41.410;2.194;2022-07-12T11:41:04;8.50;;;4.07;;
49396;SDS011;35615;41.410;2.194;2022-07-12T11:43:54;6.82;;;3.83;;
49396;SDS011;35615;41.410;2.194;2022-07-12T11:46:29;4.80;;;4.22;;
49396;SDS011;35615;41.410;2.194;2022-07-12T11:48:57;7.15;;;4.22;;
49396;SDS011;35615;41.410;2.194;2022-07-12T11:51:26;8.77;;;4.05;;
49396;SDS011;35615;41.410;2.194;2022-07-12T11:54:02;9.15;;;4.13;;
49396;SDS011;35615;41.410;2.194;2022-07-12T11:56:32;6.93;;;3.90;;
49396;SDS011;35615;41.410;2.194;2022-07-12T11:59:01;9.07;;;4.72;;
49396;SDS011;35615;41.410;2.194;2022-07-12T12:01:28;5.55;;;3.90;;
49396;SDS011;35615;41.410;2.194;2022-07-12T12:03:57;9.00;;;4.78;;
49396;SDS011;35615;41.410;2.194;2022-07-12T12:06:24;7.03;;;4.40;;
49396;SDS011;35615;41.410;2.194;2022-07-12T12:09:05;7.97;;;4.07;;
49396;SDS011;35615;41.410;2.194;2022-07-12T12:11:34;14.23;;;4.45;;
49396;SDS011;35615;41.410;2.194;2022-07-12T12:14:01;6.63;;;3.55;;
49396;SDS011;35615;41.410;2.194;2022-07-12T12:16:32;12.48;;;4.35;;
49396;SDS011;35615;41.410;2.194;2022-07-12T12:19:00;9.63;;;3.70;;
49396;SDS011;35615;41.410;2.194;2022-07-12T12:21:31;7.38;;;3.42;;
49396;SDS011;35615;41.410;2.194;2022-07-12T12:24:08;8.20;;;4.43;;
49396;SDS011;35615;41.410;2.194;2022-07-12T12:26:39;5.45;;;3.60;;
49396;SDS011;35615;41.410;2.194;2022-07-12T12:29:06;9.98;;;3.63;;
49396;SDS011;35615;41.410;2.194;2022-07-12T12:31:33;6.68;;;3.45;;
49396;SDS011;35615;41.410;2.194;2022-07-12T12:34:01;5.30;;;3.50;;
49396;SDS011;35615;41.410;2.194;2022-07-12T12:36:37;5.95;;;3.85;;
49396;SDS011;35615;41.410;2.194;2022-07-12T12:39:05;11.75;;;4.72;;
49396;SDS011;35615;41.410;2.194;2022-07-12T12:41:39;7.82;;;3.80;;
49396;SDS011;35615;41.410;2.194;2022-07-12T12:44:10;4.47;;;3.35;;
49396;SDS011;35615;41.410;2.194;2022-07-12T12:49:47;12.65;;;4.22;;
49396;SDS011;35615;41.410;2.194;2022-07-12T12:52:24;6.93;;;3.70;;
49396;SDS011;35615;41.410;2.194;2022-07-12T12:54:52;5.05;;;3.80;;
49396;SDS011;35615;41.410;2.194;2022-07-12T12:57:20;4.97;;;3.50;;
49396;SDS011;35615;41.410;2.194;2022-07-12T12:59:48;7.65;;;3.92;;
49396;SDS011;35615;41.410;2.194;2022-07-12T13:02:16;5.10;;;3.92;;
49396;SDS011;35615;41.410;2.194;2022-07-12T13:04:44;6.95;;;3.35;;
49396;SDS011;35615;41.410;2.194;2022-07-12T13:07:11;5.95;;;3.58;;
49396;SDS011;35615;41.410;2.194;2022-07-12T13:09:40;5.40;;;3.63;;
49396;SDS011;35615;41.410;2.194;2022-07-12T13:12:10;8.70;;;4.15;;
49396;SDS011;35615;41.410;2.194;2022-07-12T13:14:37;5.35;;;3.70;;
49396;SDS011;35615;41.410;2.194;2022-07-12T13:17:04;4.75;;;3.47;;
49396;SDS011;35615;41.410;2.194;2022-07-12T13:19:32;8.35;;;4.10;;
49396;SDS011;35615;41.410;2.194;2022-07-12T13:22:00;4.35;;;3.88;;
49396;SDS011;35615;41.410;2.194;2022-07-12T13:24:27;8.43;;;4.15;;
49396;SDS011;35615;41.410;2.194;2022-07-12T13:26:54;7.93;;;4.10;;
49396;SDS011;35615;41.410;2.194;2022-07-12T13:29:22;7.03;;;3.13;;
49396;SDS011;35615;41.410;2.194;2022-07-12T13:31:49;11.07;;;4.10;;
49396;SDS011;35615;41.410;2.194;2022-07-12T13:34:25;6.65;;;3.60;;
49396;SDS011;35615;41.410;2.194;2022-07-12T13:36:54;6.97;;;3.85;;
49396;SDS011;35615;41.410;2.194;2022-07-12T13:39:22;6.55;;;3.50;;
49396;SDS011;35615;41.410;2.194;2022-07-12T13:42:08;6.72;;;3.42;;
49396;SDS011;35615;41.410;2.194;2022-07-12T13:44:35;11.93;;;4.80;;
49396;SDS011;35615;41.410;2.194;2022-07-12T13:47:02;5.85;;;3.45;;
49396;SDS011;35615;41.410;2.194;2022-07-12T13:49:30;13.70;;;4.18;;
49396;SDS011;35615;41.410;2.194;2022-07-12T13:51:57;4.65;;;3.85;;
49396;SDS011;35615;41.410;2.194;2022-07-12T13:54:25;9.10;;;3.80;;
49396;SDS011;35615;41.410;2.194;2022-07-12T13:56:52;8.57;;;4.05;;
49396;SDS011;35615;41.410;2.194;2022-07-12T13:59:21;8.95;;;4.00;;
49396;SDS011;35615;41.410;2.194;2022-07-12T14:01:50;7.20;;;3.85;;
49396;SDS011;35615;41.410;2.194;2022-07-12T14:04:17;7.25;;;4.20;;
49396;SDS011;35615;41.410;2.194;2022-07-12T14:06:45;8.23;;;3.83;;
49396;SDS011;35615;41.410;2.194;2022-07-12T14:09:14;7.47;;;3.90;;
49396;SDS011;35615;41.410;2.194;2022-07-12T14:11:42;7.47;;;3.70;;
49396;SDS011;35615;41.410;2.194;2022-07-12T14:14:09;11.57;;;3.85;;
49396;SDS011;35615;41.410;2.194;2022-07-12T14:16:44;9.68;;;3.72;;
49396;SDS011;35615;41.410;2.194;2022-07-12T14:19:11;5.53;;;3.78;;
49396;SDS011;35615;41.410;2.194;2022-07-12T14:21:39;15.98;;;7.13;;
49396;SDS011;35615;41.410;2.194;2022-07-12T14:24:06;7.78;;;3.88;;
49396;SDS011;35615;41.410;2.194;2022-07-12T14:26:34;4.07;;;3.47;;
49396;SDS011;35615;41.410;2.194;2022-07-12T14:29:01;5.50;;;3.70;;
49396;SDS011;35615;41.410;2.194;2022-07-12T14:31:30;12.45;;;3.22;;
49396;SDS011;35615;41.410;2.194;2022-07-12T14:33:58;4.10;;;3.42;;
49396;SDS011;35615;41.410;2.194;2022-07-12T14:36:25;9.18;;;3.13;;
49396;SDS011;35615;41.410;2.194;2022-07-12T14:38:53;9.07;;;4.65;;
49396;SDS011;35615;41.410;2.194;2022-07-12T14:41:23;11.48;;;4.53;;
49396;SDS011;35615;41.410;2.194;2022-07-12T14:43:51;4.53;;;3.20;;
49396;SDS011;35615;41.410;2.194;2022-07-12T14:46:18;11.07;;;4.68;;
49396;SDS011;35615;41.410;2.194;2022-07-12T14:48:46;4.43;;;3.63;;
49396;SDS011;35615;41.410;2.194;2022-07-12T14:51:18;9.00;;;3.50;;
49396;SDS011;35615;41.410;2.194;2022-07-12T14:53:46;6.18;;;3.80;;
49396;SDS011;35615;41.410;2.194;2022-07-12T14:56:15;3.80;;;3.30;;
49396;SDS011;35615;41.410;2.194;2022-07-12T14:58:42;6.78;;;3.70;;
49396;SDS011;35615;41.410;2.194;2022-07-12T15:01:11;7.65;;;4.45;;
49396;SDS011;35615;41.410;2.194;2022-07-12T15:03:39;6.55;;;3.95;;
49396;SDS011;35615;41.410;2.194;2022-07-12T15:06:07;6.70;;;4.07;;
49396;SDS011;35615;41.410;2.194;2022-07-12T15:08:34;7.70;;;3.47;;
49396;SDS011;35615;41.410;2.194;2022-07-12T15:11:02;6.15;;;3.42;;
49396;SDS011;35615;41.410;2.194;2022-07-12T15:13:30;7.13;;;4.25;;
49396;SDS011;35615;41.410;2.194;2022-07-12T15:15:58;3.97;;;3.58;;
49396;SDS011;35615;41.410;2.194;2022-07-12T15:18:28;8.07;;;3.80;;
49396;SDS011;35615;41.410;2.194;2022-07-12T15:20:56;8.10;;;3.70;;
49396;SDS011;35615;41.410;2.194;2022-07-12T15:23:23;8.50;;;4.28;;
49396;SDS011;35615;41.410;2.194;2022-07-12T15:25:50;7.43;;;4.25;;
49396;SDS011;35615;41.410;2.194;2022-07-12T15:28:19;5.05;;;4.07;;
49396;SDS011;35615;41.410;2.194;2022-07-12T15:30:48;8.02;;;4.40;;
49396;SDS011;35615;41.410;2.194;2022-07-12T15:33:18;7.10;;;3.72;;
49396;SDS011;35615;41.410;2.194;2022-07-12T15:35:45;6.22;;;4.00;;
49396;SDS011;35615;41.410;2.194;2022-07-12T15:38:13;9.82;;;4.22;;
49396;SDS011;35615;41.410;2.194;2022-07-12T15:40:40;4.50;;;3.63;;
49396;SDS011;35615;41.410;2.194;2022-07-12T15:43:08;10.93;;;4.30;;
49396;SDS011;35615;41.410;2.194;2022-07-12T15:45:37;5.68;;;3.90;;
49396;SDS011;35615;41.410;2.194;2022-07-12T15:48:05;5.68;;;3.95;;
49396;SDS011;35615;41.410;2.194;2022-07-12T15:50:33;11.57;;;4.40;;
49396;SDS011;35615;41.410;2.194;2022-07-12T15:53:01;7.63;;;4.10;;
49396;SDS011;35615;41.410;2.194;2022-07-12T15:55:46;10.48;;;3.88;;
49396;SDS011;35615;41.410;2.194;2022-07-12T15:58:16;6.05;;;3.35;;
49396;SDS011;35615;41.410;2.194;2022-07-12T16:00:47;9.23;;;3.95;;
49396;SDS011;35615;41.410;2.194;2022-07-12T16:03:14;5.88;;;3.92;;